Time;durP1;ratioP1;P1;durP2;ratioP2;P2;SDS_P1;SDS_P2;PMS_P1;PMS_P2;Temp;Humidity;BMP_temperature;BMP_pressure;BME280_temperature;BME280_humidity;BME280_pressure;Samples;Min_cycle;Max_cycle;Signal;HPM_P1;HPM_P2
2022/11/24 00:01:48;;;;;;;13.88;6.88;;;;;;;17.64;48.52;100149.44;5027453;28;20050;-56
2022/11/24 00:04:13;;;;;;;12.98;5.70;;;;;;;17.66;48.67;100152.78;5027162;28;20052;-54
2022/11/24 00:06:38;;;;;;;10.63;5.25;;;;;;;17.73;48.41;100177.13;5027199;28;20048;-53
2022/11/24 00:09:04;;;;;;;10.52;5.43;;;;;;;17.71;48.69;100163.88;5027114;28;20037;-55
2022/11/24 00:11:32;;;;;;;10.32;5.35;;;;;;;17.72;48.36;100164.69;5027193;28;20113;-51
2022/11/24 00:13:58;;;;;;;10.27;4.80;;;;;;;17.72;48.50;100172.75;5027106;28;20026;-55
2022/11/24 00:16:28;;;;;;;10.25;4.55;;;;;;;17.71;48.45;100176.44;5026046;28;20030;-54
2022/11/24 00:18:55;;;;;;;10.00;4.70;;;;;;;17.65;48.40;100164.56;5026883;28;20037;-53
2022/11/24 00:21:22;;;;;;;9.93;5.38;;;;;;;17.63;48.49;100158.53;5026975;28;20045;-54
2022/11/24 00:23:48;;;;;;;10.65;5.75;;;;;;;17.68;48.50;100172.28;5026183;28;20134;-52
2022/11/24 00:26:14;;;;;;;9.32;4.93;;;;;;;17.69;48.59;100165.03;5026865;28;20073;-52
2022/11/24 00:28:40;;;;;;;8.68;5.32;;;;;;;17.68;48.45;100158.00;5026704;28;20029;-51
2022/11/24 00:31:20;;;;;;;10.35;4.65;;;;;;;17.68;48.39;100169.59;5026405;28;20033;-52
2022/11/24 00:33:47;;;;;;;11.45;4.88;;;;;;;17.68;48.62;100158.00;5007063;28;20070;-53
2022/11/24 00:36:12;;;;;;;11.20;5.18;;;;;;;17.67;48.29;100153.63;5006992;28;20026;-51
2022/11/24 00:38:38;;;;;;;8.63;4.75;;;;;;;17.65;48.52;100159.19;5006884;28;20038;-52
2022/11/24 00:41:03;;;;;;;9.18;4.63;;;;;;;17.66;48.35;100160.84;5008963;28;20022;-52
2022/11/24 00:43:29;;;;;;;9.55;4.35;;;;;;;17.64;48.59;100164.75;5026405;28;20072;-52
2022/11/24 00:45:54;;;;;;;8.73;4.63;;;;;;;17.60;48.32;100163.44;5025889;28;20025;-55
2022/11/24 00:48:19;;;;;;;9.20;4.47;;;;;;;17.64;48.59;100175.50;5026599;28;20090;-48
2022/11/24 00:50:55;;;;;;;9.52;4.25;;;;;;;17.62;48.53;100174.81;5026374;28;20537;-55
2022/11/24 00:53:20;;;;;;;8.75;4.50;;;;;;;17.64;48.48;100178.19;5025705;28;20483;-50
2022/11/24 00:55:48;;;;;;;9.02;4.28;;;;;;;17.63;48.39;100174.66;5026220;28;20037;-53
2022/11/24 00:58:14;;;;;;;7.75;3.92;;;;;;;17.62;48.33;100177.50;5026289;28;20053;-53
2022/11/24 01:00:39;;;;;;;9.68;3.85;;;;;;;17.50;48.18;100169.03;5025722;28;20036;-49
2022/11/24 01:03:04;;;;;;;9.38;4.50;;;;;;;17.61;48.55;100186.59;5026104;28;20387;-54
2022/11/24 01:05:29;;;;;;;8.27;4.30;;;;;;;17.62;48.29;100182.88;5025969;28;20040;-51
2022/11/24 01:07:55;;;;;;;10.15;4.30;;;;;;;17.61;48.14;100186.59;5026167;28;20491;-55
2022/11/24 01:10:20;;;;;;;12.05;4.45;;;;;;;17.61;48.24;100183.91;5026093;28;20026;-53
2022/11/24 01:12:46;;;;;;;7.97;4.38;;;;;;;17.59;48.21;100188.66;5026128;28;20049;-51
2022/11/24 01:15:12;;;;;;;8.80;4.28;;;;;;;17.55;48.51;100190.84;5025658;28;20029;-53
2022/11/24 01:17:37;;;;;;;8.43;3.85;;;;;;;17.58;48.36;100209.28;5025551;28;20237;-55
2022/11/24 01:20:03;;;;;;;10.02;4.18;;;;;;;17.52;48.27;100191.19;5025695;28;20037;-54
2022/11/24 01:22:29;;;;;;;9.20;4.15;;;;;;;17.48;48.32;100185.31;5025919;28;20028;-53
2022/11/24 01:24:54;;;;;;;8.60;4.63;;;;;;;17.57;48.32;100213.00;5025495;28;20069;-55
2022/11/24 01:27:19;;;;;;;7.90;3.97;;;;;;;17.57;48.23;100220.22;5025518;28;20090;-54
2022/11/24 01:29:45;;;;;;;6.40;3.55;;;;;;;17.57;48.47;100220.22;5025028;28;20048;-54
2022/11/24 01:32:10;;;;;;;9.18;4.38;;;;;;;17.37;48.28;100182.19;5025728;28;20383;-56
2022/11/24 01:34:35;;;;;;;8.45;4.25;;;;;;;17.56;48.54;100227.44;5007928;28;20029;-55
2022/11/24 01:37:00;;;;;;;6.30;3.28;;;;;;;17.55;48.78;100235.69;5025479;28;20057;-56
2022/11/24 01:39:26;;;;;;;9.07;4.13;;;;;;;17.39;48.49;100199.81;5025196;28;20076;-55
2022/11/24 01:41:51;;;;;;;8.30;3.72;;;;;;;17.55;48.56;100227.63;5025490;28;20534;-54
2022/11/24 01:44:35;;;;;;;8.18;3.33;;;;;;;17.51;48.21;100227.16;5024997;28;20022;-53
2022/11/24 01:47:00;;;;;;;9.25;3.97;;;;;;;17.55;48.40;100222.25;5024967;28;20029;-50
2022/11/24 01:49:38;;;;;;;6.25;3.90;;;;;;;17.54;48.28;100217.88;5025195;28;20018;-52
2022/11/24 01:52:16;;;;;;;8.95;4.07;;;;;;;17.53;48.22;100217.03;5025197;28;20081;-54
2022/11/24 01:54:45;;;;;;;8.15;3.53;;;;;;;17.53;48.26;100217.03;5025042;28;20032;-52
2022/11/24 01:57:19;;;;;;;7.65;3.70;;;;;;;17.52;48.40;100214.53;5007844;28;20061;-55
2022/11/24 01:59:45;;;;;;;7.25;3.60;;;;;;;17.53;48.26;100224.28;5024624;28;20471;-55
2022/11/24 02:02:11;;;;;;;8.50;3.80;;;;;;;17.52;48.54;100219.91;5007506;28;20068;-54
2022/11/24 02:04:37;;;;;;;7.15;3.42;;;;;;;17.52;48.30;100233.34;5024985;28;20040;-53
2022/11/24 02:07:04;;;;;;;8.07;3.30;;;;;;;17.51;48.47;100237.91;5024515;28;20080;-53
2022/11/24 02:09:45;;;;;;;6.53;3.55;;;;;;;17.51;48.41;100229.84;5024907;28;20029;-52
2022/11/24 02:12:11;;;;;;;7.70;3.42;;;;;;;17.45;48.23;100231.34;5007503;28;20081;-54
2022/11/24 02:14:37;;;;;;;10.50;4.25;;;;;;;17.51;48.31;100245.13;5024364;28;20037;-54
2022/11/24 02:17:02;;;;;;;6.28;2.97;;;;;;;17.51;48.24;100248.66;5006751;28;20036;-55
2022/11/24 02:19:40;;;;;;;7.72;3.53;;;;;;;17.50;48.47;100246.97;5024378;28;20494;-53
2022/11/24 02:22:32;;;;;;;5.85;2.92;;;;;;;17.51;48.11;100255.88;5024674;28;20022;-54
2022/11/24 02:25:02;;;;;;;7.70;3.35;;;;;;;17.50;48.34;100255.03;4963330;29;20072;-55
2022/11/24 02:27:28;;;;;;;7.05;3.75;;;;;;;17.49;48.27;100251.50;4947791;29;20041;-55
2022/11/24 02:29:53;;;;;;;5.97;3.30;;;;;;;17.49;47.91;100254.19;4963220;29;20078;-54
2022/11/24 02:32:19;;;;;;;7.78;3.42;;;;;;;17.49;48.41;100264.09;4947694;29;20031;-55
2022/11/24 02:34:44;;;;;;;8.23;3.50;;;;;;;17.48;48.37;100249.81;4963443;29;20078;-50
2022/11/24 02:37:10;;;;;;;5.25;2.75;;;;;;;17.49;48.70;100254.19;4963316;29;20504;-55
2022/11/24 02:39:35;;;;;;;6.07;3.67;;;;;;;17.49;48.41;100258.72;4963093;29;20023;-54
2022/11/24 02:42:04;;;;;;;8.30;3.70;;;;;;;17.49;48.16;100261.41;4963502;29;20047;-56
2022/11/24 02:44:32;;;;;;;7.68;3.08;;;;;;;17.49;48.37;100261.41;4962861;29;20067;-55
2022/11/24 02:47:05;;;;;;;6.32;3.28;;;;;;;17.50;48.33;100263.09;4959055;29;20110;-55
2022/11/24 02:49:30;;;;;;;6.57;3.00;;;;;;;17.45;48.31;100250.16;4943816;29;20043;-53
2022/11/24 02:51:56;;;;;;;5.35;2.70;;;;;;;17.49;48.29;100259.56;4943951;29;20570;-56
2022/11/24 02:54:21;;;;;;;5.60;2.97;;;;;;;17.49;48.36;100262.25;4943794;29;20058;-55
2022/11/24 02:56:46;;;;;;;7.68;3.20;;;;;;;17.48;48.22;100263.25;4944178;29;20031;-54
2022/11/24 02:59:12;;;;;;;8.60;3.13;;;;;;;17.49;48.15;100264.09;4943822;29;20055;-56
2022/11/24 03:01:37;;;;;;;7.00;3.10;;;;;;;17.48;48.21;100257.88;4966819;28;20124;-54
2022/11/24 03:04:02;;;;;;;5.45;2.78;;;;;;;17.49;48.12;100259.56;4987023;28;20030;-53
2022/11/24 03:06:27;;;;;;;5.32;3.13;;;;;;;17.49;48.05;100264.94;5012382;28;20030;-55
2022/11/24 03:08:53;;;;;;;6.07;3.30;;;;;;;17.50;48.15;100268.47;5023882;28;20065;-54
2022/11/24 03:11:18;;;;;;;5.15;2.83;;;;;;;17.49;48.24;100278.38;5023953;28;20065;-56
2022/11/24 03:13:43;;;;;;;7.03;3.40;;;;;;;17.50;48.28;100281.91;5023754;28;20029;-57
2022/11/24 03:16:09;;;;;;;6.15;2.97;;;;;;;17.51;48.02;100282.75;5023090;28;20030;-55
2022/11/24 03:18:34;;;;;;;5.50;2.80;;;;;;;17.50;48.01;100284.59;5023140;28;20081;-54
2022/11/24 03:21:00;;;;;;;7.57;3.35;;;;;;;17.51;48.02;100286.28;5023728;28;20372;-55
2022/11/24 03:23:25;;;;;;;5.10;2.95;;;;;;;17.50;48.15;100289.97;5023428;28;20054;-56
2022/11/24 03:25:50;;;;;;;6.03;3.15;;;;;;;17.51;48.22;100283.59;5023725;28;20026;-57
2022/11/24 03:28:16;;;;;;;5.22;2.95;;;;;;;17.51;48.22;100282.75;5023896;28;20030;-57
2022/11/24 03:30:41;;;;;;;5.43;2.60;;;;;;;17.51;48.03;100283.59;5023301;28;20053;-54
2022/11/24 03:33:07;;;;;;;6.80;2.88;;;;;;;17.51;48.14;100288.13;5023709;28;20109;-56
2022/11/24 03:35:32;;;;;;;6.00;2.92;;;;;;;17.40;48.00;100268.66;5023543;28;20030;-52
2022/11/24 03:37:57;;;;;;;6.07;2.90;;;;;;;17.51;48.17;100291.66;5023624;28;20114;-56
2022/11/24 03:40:23;;;;;;;5.35;2.90;;;;;;;17.52;48.06;100295.19;5023458;28;20029;-54
2022/11/24 03:42:48;;;;;;;6.30;3.25;;;;;;;17.52;48.18;100289.81;5023843;28;20118;-52
2022/11/24 03:45:13;;;;;;;5.65;2.70;;;;;;;17.53;48.17;100291.47;5022896;28;20018;-54
2022/11/24 03:47:39;;;;;;;4.32;2.50;;;;;;;17.51;48.17;100299.72;5023151;28;20030;-53
2022/11/24 03:50:05;;;;;;;4.47;2.42;;;;;;;17.49;48.23;100294.50;5023512;28;20483;-54
2022/11/24 03:52:30;;;;;;;5.63;2.75;;;;;;;17.48;48.04;100292.00;5023603;28;20025;-54
2022/11/24 03:54:55;;;;;;;6.63;2.92;;;;;;;17.53;48.16;100304.91;5023377;28;20030;-54
2022/11/24 03:57:21;;;;;;;6.18;2.70;;;;;;;17.54;47.59;100298.50;5023709;28;20040;-53
2022/11/24 03:59:46;;;;;;;4.07;2.38;;;;;;;17.51;48.02;100297.03;5023161;28;20057;-52
2022/11/24 04:02:11;;;;;;;5.38;2.30;;;;;;;17.53;47.89;100305.75;5023526;28;20021;-55
2022/11/24 04:04:37;;;;;;;7.25;2.85;;;;;;;17.45;48.21;100295.03;5023265;28;20026;-56
2022/11/24 04:07:02;;;;;;;4.93;2.30;;;;;;;17.54;48.04;100311.94;5023248;28;20034;-54
2022/11/24 04:09:28;;;;;;;5.10;2.50;;;;;;;17.50;47.89;100316.88;5023205;28;20073;-52
2022/11/24 04:14:37;;;;;;;6.30;2.38;;;;;;;17.55;48.04;100327.09;5022753;28;20093;-55
2022/11/24 04:17:03;;;;;;;5.05;2.50;;;;;;;17.45;47.96;100320.03;5023266;28;20057;-54
2022/11/24 04:19:28;;;;;;;5.40;2.10;;;;;;;17.55;48.08;100333.31;5023248;28;20096;-50
2022/11/24 04:21:54;;;;;;;6.93;2.42;;;;;;;17.56;47.79;100336.81;5023237;28;20090;-50
2022/11/24 04:24:19;;;;;;;6.57;3.15;;;;;;;17.55;48.47;100338.69;5023164;28;20056;-56
2022/11/24 04:26:44;;;;;;;4.15;2.38;;;;;;;17.56;48.12;100342.19;5023346;28;20037;-53
2022/11/24 04:29:09;;;;;;;5.50;2.83;;;;;;;17.57;48.13;100341.19;5024430;28;20080;-53
2022/11/24 04:31:35;;;;;;;4.93;2.67;;;;;;;17.58;48.04;100342.84;5025243;28;20073;-56
2022/11/24 04:34:00;;;;;;;6.70;2.72;;;;;;;17.59;47.93;100352.63;5026803;28;20093;-52
2022/11/24 04:36:25;;;;;;;6.47;2.60;;;;;;;17.34;47.98;100315.06;5026426;28;20042;-56
2022/11/24 04:38:52;;;;;;;6.15;2.40;;;;;;;17.59;47.77;100358.00;5026463;28;20026;-52
2022/11/24 04:41:18;;;;;;;4.30;2.13;;;;;;;17.60;48.02;100356.97;5026579;28;20026;-53
2022/11/24 04:43:43;;;;;;;4.57;2.03;;;;;;;17.60;48.09;100360.50;5026738;28;20061;-54
2022/11/24 04:46:10;;;;;;;3.97;2.20;;;;;;;17.61;47.72;100361.31;5025694;28;20030;-51
2022/11/24 04:48:35;;;;;;;5.30;2.42;;;;;;;17.48;48.01;100338.50;5011141;28;20037;-53
2022/11/24 04:51:04;;;;;;;6.30;3.17;;;;;;;17.61;47.97;100359.47;5026004;28;20030;-55
2022/11/24 04:53:29;;;;;;;5.68;2.60;;;;;;;17.63;48.08;100362.84;5025625;28;20058;-51
2022/11/24 04:55:54;;;;;;;5.53;2.28;;;;;;;17.62;48.08;100355.75;5025639;28;20030;-52
2022/11/24 04:58:19;;;;;;;4.43;1.95;;;;;;;17.63;48.49;100357.47;5025980;28;20021;-51
2022/11/24 05:00:44;;;;;;;5.78;2.38;;;;;;;17.65;48.29;100362.66;5025093;28;20029;-56
2022/11/24 05:03:10;;;;;;;5.40;2.38;;;;;;;17.65;48.79;100366.19;5025869;28;20017;-55
2022/11/24 05:05:35;;;;;;;3.80;1.92;;;;;;;17.64;48.69;100369.88;5025226;28;20025;-54
2022/11/24 05:08:00;;;;;;;4.55;2.05;;;;;;;17.69;48.53;100369.38;5025807;28;20014;-52
2022/11/24 05:10:36;;;;;;;4.68;2.53;;;;;;;17.69;48.93;100374.75;5025385;28;20474;-53
2022/11/24 05:13:04;;;;;;;6.95;2.63;;;;;;;17.71;48.71;100372.69;5026214;28;20044;-55
2022/11/24 05:15:29;;;;;;;5.53;2.28;;;;;;;17.65;48.74;100371.56;5022221;28;20028;-53
2022/11/24 05:17:55;;;;;;;6.15;2.53;;;;;;;17.61;49.11;100372.06;5025620;28;20026;-54
2022/11/24 05:20:21;;;;;;;5.72;2.80;;;;;;;17.58;48.84;100369.72;5025077;28;20093;-54
2022/11/24 05:22:46;;;;;;;4.90;2.17;;;;;;;17.74;48.93;100399.28;5006694;28;20060;-52
2022/11/24 05:25:13;;;;;;;6.43;2.47;;;;;;;17.76;48.79;100405.34;5018052;28;20053;-52
2022/11/24 05:27:38;;;;;;;4.57;2.15;;;;;;;17.68;48.92;100399.97;5024700;28;20018;-57
2022/11/24 05:30:04;;;;;;;4.97;2.53;;;;;;;17.77;49.04;100409.69;5024574;28;20060;-54
2022/11/24 05:32:29;;;;;;;4.15;1.85;;;;;;;17.75;49.31;100409.03;5025343;28;20045;-50
2022/11/24 05:34:55;;;;;;;3.78;2.00;;;;;;;17.77;49.48;100409.69;5024712;28;20097;-54
2022/11/24 05:37:21;;;;;;;4.03;1.83;;;;;;;17.79;48.93;100422.97;5020574;28;20033;-56
2022/11/24 05:39:46;;;;;;;6.00;2.50;;;;;;;17.80;49.13;100430.00;5019293;28;20030;-55
2022/11/24 05:44:56;;;;;;;4.25;1.95;;;;;;;17.81;49.21;100439.78;5018861;28;20037;-57
2022/11/24 05:47:22;;;;;;;4.40;1.85;;;;;;;17.83;49.11;100448.50;5019057;28;20018;-58
2022/11/24 05:49:47;;;;;;;5.40;2.40;;;;;;;17.69;49.25;100428.50;5003459;28;20084;-59
2022/11/24 05:52:13;;;;;;;5.28;2.75;;;;;;;17.81;49.55;100448.69;5022559;28;20062;-58
2022/11/24 05:54:38;;;;;;;3.95;2.28;;;;;;;17.84;49.59;100447.47;5015002;28;20030;-58
2022/11/24 05:57:03;;;;;;;4.60;2.00;;;;;;;17.83;49.47;100452.03;5024538;28;20060;-59
2022/11/24 05:59:29;;;;;;;5.60;2.50;;;;;;;17.85;49.43;100458.09;5024770;28;20053;-57
2022/11/24 06:01:54;;;;;;;5.47;2.15;;;;;;;17.85;49.18;100463.47;5000687;28;20525;-57
2022/11/24 06:04:19;;;;;;;4.10;2.00;;;;;;;17.86;49.31;100472.38;5014659;28;20121;-58
2022/11/24 06:06:45;;;;;;;4.20;1.90;;;;;;;17.81;49.13;100470.19;5011625;28;20032;-57
2022/11/24 06:09:10;;;;;;;3.67;2.20;;;;;;;17.87;49.14;100485.63;5014210;28;20060;-58
2022/11/24 06:11:36;;;;;;;7.60;1.90;;;;;;;17.87;49.27;100482.94;5019018;28;20014;-55
2022/11/24 06:14:01;;;;;;;4.80;2.22;;;;;;;17.82;49.24;100479.09;5024560;28;20017;-58
2022/11/24 06:16:26;;;;;;;3.88;2.10;;;;;;;17.84;49.46;100482.44;5023926;28;20034;-59
2022/11/24 06:18:51;;;;;;;5.53;2.33;;;;;;;17.89;48.90;100497.06;5024679;28;20037;-58
2022/11/24 06:21:17;;;;;;;3.50;1.67;;;;;;;17.89;49.33;100496.22;5024086;28;20085;-58
2022/11/24 06:23:42;;;;;;;5.38;2.08;;;;;;;17.87;49.19;100506.31;5024233;28;20503;-58
2022/11/24 06:26:08;;;;;;;5.20;2.00;;;;;;;17.89;49.29;100507.81;5024594;28;20033;-59
2022/11/24 06:28:34;;;;;;;4.15;2.20;;;;;;;17.88;49.18;100513.34;5024939;28;20033;-58
2022/11/24 06:31:03;;;;;;;3.88;2.20;;;;;;;17.89;49.02;100509.69;5024363;28;20066;-58
2022/11/24 06:33:32;;;;;;;5.00;2.25;;;;;;;17.89;48.96;100523.13;5024457;28;20026;-59
2022/11/24 06:36:01;;;;;;;3.83;2.17;;;;;;;17.86;48.98;100515.41;5024261;28;20052;-59
2022/11/24 06:38:26;;;;;;;4.22;1.77;;;;;;;17.89;48.86;100526.66;5024714;28;20038;-59
2022/11/24 06:40:59;;;;;;;3.70;1.80;;;;;;;17.85;49.21;100524.47;5024189;28;20022;-59
2022/11/24 06:43:26;;;;;;;2.53;1.58;;;;;;;17.88;48.96;100529.50;5024124;28;20089;-58
2022/11/24 06:45:51;;;;;;;3.60;2.03;;;;;;;17.86;49.07;100536.91;5023791;28;20050;-59
2022/11/24 06:48:16;;;;;;;4.18;1.88;;;;;;;17.90;48.91;100549.00;5006858;28;20032;-58
2022/11/24 06:50:42;;;;;;;3.78;1.80;;;;;;;17.87;49.12;100546.66;5024312;28;20036;-58
2022/11/24 06:53:07;;;;;;;3.15;1.83;;;;;;;17.89;48.82;100553.56;5024386;28;20033;-58
2022/11/24 06:55:32;;;;;;;5.22;1.85;;;;;;;17.89;49.16;100567.00;5005963;28;20041;-59
2022/11/24 06:57:58;;;;;;;3.58;1.95;;;;;;;17.89;48.90;100569.69;5024298;28;20022;-59
2022/11/24 07:00:23;;;;;;;6.18;1.98;;;;;;;17.89;49.12;100579.59;5024756;28;20364;-58
2022/11/24 07:02:48;;;;;;;3.90;1.80;;;;;;;17.67;48.72;100546.13;5026293;28;20026;-59
2022/11/24 07:05:13;;;;;;;5.68;2.10;;;;;;;17.89;48.98;100588.50;5026648;28;20053;-60
2022/11/24 07:07:39;;;;;;;4.07;1.80;;;;;;;17.90;48.86;100592.88;5026781;28;20022;-58
2022/11/24 07:10:04;;;;;;;5.97;2.10;;;;;;;17.89;48.74;100595.75;5026206;28;20530;-59
2022/11/24 07:12:34;;;;;;;4.63;1.98;;;;;;;17.89;48.86;100601.13;5027435;28;20105;-60
2022/11/24 07:14:59;;;;;;;3.65;1.80;;;;;;;17.88;48.60;100602.97;5025390;28;20026;-60
2022/11/24 07:17:24;;;;;;;4.28;2.17;;;;;;;17.90;48.58;100608.19;5025988;28;20129;-60
2022/11/24 07:19:49;;;;;;;4.82;1.90;;;;;;;17.88;48.72;100612.88;5026962;28;20038;-59
2022/11/24 07:22:14;;;;;;;5.47;2.65;;;;;;;17.88;48.52;100610.19;5027330;28;20064;-60
2022/11/24 07:24:40;;;;;;;4.32;2.00;;;;;;;17.87;48.66;100614.72;5026940;28;20069;-60
2022/11/24 07:27:05;;;;;;;3.15;1.77;;;;;;;17.88;48.70;100615.56;5027325;28;20145;-60
2022/11/24 07:29:30;;;;;;;4.82;2.20;;;;;;;17.88;48.68;100626.31;5027018;28;20030;-60
2022/11/24 07:31:56;;;;;;;3.92;1.70;;;;;;;17.81;48.56;100623.47;5026811;28;20089;-60
2022/11/24 07:34:21;;;;;;;3.80;2.10;;;;;;;17.88;48.48;100627.19;5026702;28;20103;-61
2022/11/24 07:36:46;;;;;;;4.25;1.95;;;;;;;17.88;48.70;100639.75;5027250;28;20057;-60
2022/11/24 07:39:12;;;;;;;3.22;2.33;;;;;;;17.89;48.47;100636.09;5026949;28;20045;-60
2022/11/24 07:41:37;;;;;;;4.18;1.80;;;;;;;17.88;48.38;100634.38;5009422;28;20124;-59
2022/11/24 07:44:02;;;;;;;2.85;1.75;;;;;;;17.81;48.62;100634.22;5023962;28;20026;-60
2022/11/24 07:46:28;;;;;;;2.70;1.98;;;;;;;17.86;48.31;100637.25;5023667;28;20037;-60
2022/11/24 07:48:53;;;;;;;5.88;1.95;;;;;;;17.89;48.29;100645.00;5023986;28;20033;-60
2022/11/24 07:51:18;;;;;;;4.28;1.85;;;;;;;17.90;48.29;100654.75;5023810;28;20033;-60
2022/11/24 07:53:44;;;;;;;4.32;1.45;;;;;;;17.91;48.40;100660.94;5023510;28;20041;-60
2022/11/24 07:56:09;;;;;;;2.67;1.65;;;;;;;17.92;48.26;100659.94;5023964;28;20040;-60
2022/11/24 07:58:36;;;;;;;2.50;1.73;;;;;;;17.91;48.50;100666.34;5024091;28;20042;-60
2022/11/24 08:01:12;;;;;;;4.53;1.90;;;;;;;17.91;48.26;100661.78;5023371;28;20026;-60
2022/11/24 08:03:37;;;;;;;3.92;1.88;;;;;;;17.92;48.27;100668.84;5024241;28;20056;-60
2022/11/24 08:06:02;;;;;;;4.72;2.40;;;;;;;17.93;48.47;100665.16;5027453;28;20029;-60
2022/11/24 08:08:32;;;;;;;2.85;1.55;;;;;;;17.92;48.28;100674.22;5027577;28;20033;-59
2022/11/24 08:10:57;;;;;;;3.45;2.08;;;;;;;17.96;48.22;100674.72;5027738;28;20034;-60
2022/11/24 08:13:22;;;;;;;3.33;1.55;;;;;;;17.96;48.03;100672.88;5027836;28;20562;-60
2022/11/24 08:15:47;;;;;;;3.33;2.20;;;;;;;17.93;48.10;100677.78;5026786;28;20030;-60
2022/11/24 08:18:12;;;;;;;3.28;1.50;;;;;;;17.98;48.02;100699.63;5027826;28;20030;-60
2022/11/24 08:20:38;;;;;;;3.60;1.63;;;;;;;17.92;48.22;100690.34;5027073;28;20034;-60
2022/11/24 08:23:03;;;;;;;4.05;1.95;;;;;;;17.97;48.14;100706.03;5027188;28;20033;-60
2022/11/24 08:25:32;;;;;;;3.60;1.67;;;;;;;17.97;48.28;100714.09;5026784;28;20082;-60
2022/11/24 08:27:58;;;;;;;3.17;1.55;;;;;;;17.98;48.27;100713.09;5009633;28;20021;-60
2022/11/24 08:30:23;;;;;;;4.40;2.42;;;;;;;17.97;48.25;100722.16;5026520;28;20049;-60
2022/11/24 08:32:49;;;;;;;2.80;1.63;;;;;;;17.97;47.92;100725.69;5026688;28;20494;-60
2022/11/24 08:35:14;;;;;;;3.22;2.00;;;;;;;17.97;48.21;100727.53;5026812;28;20041;-60
2022/11/24 08:37:39;;;;;;;2.90;1.48;;;;;;;17.85;48.26;100708.19;5026943;28;20026;-60
2022/11/24 08:40:05;;;;;;;5.18;2.13;;;;;;;17.80;48.17;100707.00;5026500;28;20026;-60
2022/11/24 08:42:30;;;;;;;7.13;1.83;;;;;;;17.96;48.80;100724.00;5026620;28;20076;-60
2022/11/24 08:44:56;;;;;;;3.70;1.58;;;;;;;17.97;48.05;100731.06;5026055;28;20038;-60
2022/11/24 08:47:21;;;;;;;4.25;1.70;;;;;;;17.83;48.24;100706.66;5026486;28;20029;-60
2022/11/24 08:49:46;;;;;;;2.47;1.48;;;;;;;17.98;48.24;100735.44;5026579;28;20090;-60
2022/11/24 08:52:12;;;;;;;2.85;1.80;;;;;;;17.90;48.05;100721.13;5026480;28;20061;-60
2022/11/24 08:54:39;;;;;;;2.92;1.70;;;;;;;18.02;48.25;100745.88;5026137;28;20030;-59
2022/11/24 08:57:04;;;;;;;2.72;1.90;;;;;;;17.99;48.40;100747.88;5026253;28;20022;-60
2022/11/24 08:59:30;;;;;;;4.70;2.25;;;;;;;18.02;48.07;100745.88;5026086;28;20036;-60
2022/11/24 09:01:55;;;;;;;3.03;2.22;;;;;;;17.99;47.87;100747.03;5025979;28;20030;-59
2022/11/24 09:04:20;;;;;;;2.25;1.60;;;;;;;18.04;48.21;100747.38;5026345;28;20102;-60
2022/11/24 09:06:45;;;;;;;3.03;1.73;;;;;;;18.07;47.94;100755.13;5026104;28;20084;-60
2022/11/24 09:09:11;;;;;;;4.43;2.08;;;;;;;18.09;47.71;100757.63;5025967;28;20026;-60
2022/11/24 09:11:36;;;;;;;4.38;1.70;;;;;;;18.09;47.63;100760.31;5025943;28;20085;-60
2022/11/24 09:14:02;;;;;;;4.03;1.67;;;;;;;18.16;47.74;100767.56;5025937;28;20061;-60
2022/11/24 09:16:28;;;;;;;4.00;1.90;;;;;;;18.04;47.48;100739.31;5023987;28;20442;-60
2022/11/24 09:19:04;;;;;;;2.35;1.70;;;;;;;18.17;47.60;100766.53;5025463;28;20418;-59
2022/11/24 09:21:32;;;;;;;3.38;1.77;;;;;;;18.17;47.38;100773.78;5025554;28;20030;-60
2022/11/24 09:23:57;;;;;;;1.80;1.40;;;;;;;18.17;47.37;100768.41;5025531;28;20049;-60
2022/11/24 09:26:25;;;;;;;2.53;1.55;;;;;;;18.14;47.53;100776.84;5025581;28;20048;-60
2022/11/24 09:28:53;;;;;;;2.83;1.80;;;;;;;18.19;47.46;100793.31;5023205;28;20061;-57
2022/11/24 09:31:19;;;;;;;1.90;1.50;;;;;;;18.19;47.76;100791.47;5024893;28;20018;-59
2022/11/24 09:33:45;;;;;;;3.33;1.75;;;;;;;18.11;47.92;100778.00;5025715;28;20049;-60
2022/11/24 09:36:11;;;;;;;2.08;1.63;;;;;;;18.14;47.91;100785.75;5025428;28;20030;-59
2022/11/24 09:38:36;;;;;;;3.33;1.98;;;;;;;18.18;47.82;100795.16;5025515;28;20033;-60
2022/11/24 09:41:17;;;;;;;4.18;2.13;;;;;;;18.18;48.15;100800.53;5025105;28;20025;-60
2022/11/24 09:44:01;;;;;;;2.80;2.00;;;;;;;18.19;47.83;100804.06;5025432;28;20026;-60
2022/11/24 09:47:04;;;;;;;3.67;1.60;;;;;;;18.07;48.28;100792.78;5007270;28;20018;-59
2022/11/24 09:49:36;;;;;;;3.75;1.73;;;;;;;18.17;48.06;100806.91;5024843;28;20022;-60
2022/11/24 09:52:09;;;;;;;2.05;1.80;;;;;;;18.18;48.25;100819.38;5025134;28;20053;-60
2022/11/24 09:54:36;;;;;;;2.60;1.80;;;;;;;18.18;47.99;100829.28;5025343;28;20033;-59
2022/11/24 09:57:02;;;;;;;3.42;1.88;;;;;;;18.07;47.92;100808.94;5024963;28;20025;-60
2022/11/24 09:59:28;;;;;;;4.85;1.67;;;;;;;18.19;48.44;100834.50;5007462;28;20033;-60
2022/11/24 10:01:54;;;;;;;2.92;1.67;;;;;;;18.20;48.12;100838.03;5006727;28;20034;-60
2022/11/24 10:04:21;;;;;;;2.55;1.55;;;;;;;18.20;48.05;100841.56;5007845;28;20038;-59
2022/11/24 10:06:55;;;;;;;2.78;1.70;;;;;;;18.23;48.17;100841.25;5024754;28;20049;-60
2022/11/24 10:09:39;;;;;;;2.00;1.58;;;;;;;18.26;48.21;100845.44;5024912;28;20057;-61
2022/11/24 10:12:12;;;;;;;2.17;1.70;;;;;;;18.28;48.02;100838.06;5024667;28;20050;-60
2022/11/24 10:15:14;;;;;;;3.25;1.67;;;;;;;18.28;48.21;100845.28;5019939;28;20120;-60
2022/11/24 10:17:57;;;;;;;2.85;2.17;;;;;;;18.30;47.95;100854.03;5024278;28;20041;-60
2022/11/24 10:20:48;;;;;;;3.78;2.08;;;;;;;18.30;48.11;100852.19;5024622;28;20038;-60
2022/11/24 10:23:39;;;;;;;2.70;1.80;;;;;;;18.30;48.19;100862.94;5024397;28;20046;-60
2022/11/24 10:26:17;;;;;;;2.63;1.58;;;;;;;18.31;48.18;100853.00;5024441;28;20036;-60
2022/11/24 10:28:51;;;;;;;2.88;1.70;;;;;;;18.30;48.26;100856.72;5024537;28;20237;-59
2022/11/24 10:31:22;;;;;;;4.03;1.70;;;;;;;18.32;48.23;100865.50;5006674;28;20030;-60
2022/11/24 10:33:48;;;;;;;2.78;1.77;;;;;;;18.28;48.28;100864.97;5024467;28;20025;-60
2022/11/24 10:36:19;;;;;;;2.70;1.50;;;;;;;18.33;48.04;100869.84;5024295;28;20030;-60
2022/11/24 10:38:51;;;;;;;2.67;1.75;;;;;;;18.33;48.49;100870.69;5006571;28;20100;-60
2022/11/24 10:41:25;;;;;;;2.75;1.80;;;;;;;18.33;48.29;100875.25;5024100;28;20030;-60
2022/11/24 10:43:50;;;;;;;3.03;1.88;;;;;;;18.34;48.09;100874.22;5024559;28;20069;-60
2022/11/24 10:46:26;;;;;;;3.63;1.80;;;;;;;18.34;48.38;100872.38;5023516;28;20606;-60
2022/11/24 10:49:01;;;;;;;4.25;1.98;;;;;;;18.34;48.16;100875.06;5006077;28;20104;-60
2022/11/24 10:51:29;;;;;;;3.63;1.80;;;;;;;18.35;48.31;100871.38;5006083;28;20040;-60
2022/11/24 10:53:58;;;;;;;4.57;1.75;;;;;;;18.36;48.32;100885.69;5024160;28;20026;-60
2022/11/24 10:56:24;;;;;;;3.50;2.47;;;;;;;18.37;48.49;100887.34;5023953;28;20057;-60
2022/11/24 10:58:49;;;;;;;3.00;1.75;;;;;;;18.37;48.54;100887.34;5024053;28;20018;-60
2022/11/24 11:01:27;;;;;;;3.60;2.13;;;;;;;18.18;48.27;100870.50;5023438;28;20491;-60
2022/11/24 11:03:56;;;;;;;3.58;1.70;;;;;;;18.40;48.22;100904.03;5005762;28;20036;-61
2022/11/24 11:06:31;;;;;;;4.22;1.83;;;;;;;18.40;48.55;100906.72;5005882;28;20037;-60
2022/11/24 11:09:05;;;;;;;3.60;1.60;;;;;;;18.45;48.38;100915.13;5023676;28;20034;-60
2022/11/24 11:11:31;;;;;;;3.70;1.70;;;;;;;18.40;48.40;100893.25;5023693;28;20565;-59
2022/11/24 11:13:59;;;;;;;3.95;1.83;;;;;;;18.49;48.53;100908.41;5023732;28;20037;-60
2022/11/24 11:16:34;;;;;;;3.17;1.85;;;;;;;18.52;48.35;100917.16;5005560;28;20117;-59
2022/11/24 11:19:26;;;;;;;3.50;1.90;;;;;;;18.53;48.07;100922.38;5005901;28;20456;-60
2022/11/24 11:22:09;;;;;;;5.03;1.90;;;;;;;18.52;48.09;100914.47;5005613;28;20041;-60
2022/11/24 11:24:35;;;;;;;3.17;2.00;;;;;;;18.53;48.05;100916.16;5021924;28;20060;-59
2022/11/24 11:27:03;;;;;;;3.35;1.80;;;;;;;18.54;48.26;100916.00;5006016;28;20038;-60
2022/11/24 11:29:30;;;;;;;3.60;1.80;;;;;;;18.56;48.09;100916.66;5023723;28;20034;-60
2022/11/24 11:32:01;;;;;;;2.85;1.60;;;;;;;18.58;48.16;100921.88;5023077;28;20024;-60